createdAt,value
2019-02-18T00:02:38.621Z,59.40
2019-02-18T00:05:43.294Z,56.23
2019-02-18T00:08:51.557Z,57.37
2019-02-18T00:11:55.846Z,57.90
2019-02-18T00:15:00.327Z,56.33
2019-02-18T00:18:04.772Z,60.47
2019-02-18T00:21:09.070Z,55.73
2019-02-18T00:24:13.590Z,54.23
2019-02-18T00:27:17.986Z,56.00
2019-02-18T00:30:22.238Z,55.20
2019-02-18T00:33:26.543Z,58.73
2019-02-18T00:36:30.899Z,59.10
2019-02-18T00:39:35.267Z,53.00
2019-02-18T00:42:39.599Z,56.40
2019-02-18T00:45:43.919Z,55.30
2019-02-18T00:48:48.249Z,59.77
2019-02-18T00:51:52.533Z,56.30
2019-02-18T00:54:56.927Z,57.00
2019-02-18T00:58:01.210Z,55.60
2019-02-18T01:01:05.657Z,58.20
2019-02-18T01:04:10.040Z,56.70
2019-02-18T01:07:14.339Z,54.30
2019-02-18T01:10:18.853Z,60.20
2019-02-18T01:13:23.143Z,59.73
2019-02-18T01:16:27.510Z,56.70
2019-02-18T01:19:31.785Z,55.50
2019-02-18T01:22:36.063Z,58.37
2019-02-18T01:25:40.372Z,54.43
2019-02-18T01:28:44.746Z,55.33
2019-02-18T01:31:49.047Z,50.40
2019-02-18T01:34:53.327Z,53.53
2019-02-18T01:37:57.716Z,50.93
2019-02-18T01:41:01.998Z,50.53
2019-02-18T01:44:06.293Z,50.70
2019-02-18T01:47:10.685Z,50.23
2019-02-18T01:50:15.839Z,53.60
2019-02-18T01:53:20.140Z,53.57
2019-02-18T01:56:24.491Z,53.03
2019-02-18T01:59:28.782Z,52.73
2019-02-18T02:02:33.210Z,51.67
2019-02-18T02:05:37.552Z,55.13
2019-02-18T02:08:42.189Z,50.37
2019-02-18T02:11:46.603Z,46.73
2019-02-18T02:14:50.888Z,56.73
2019-02-18T02:17:55.186Z,52.00
2019-02-18T02:20:59.568Z,46.57
2019-02-18T02:24:03.848Z,51.30
2019-02-18T02:27:08.148Z,50.57
2019-02-18T02:30:12.525Z,48.73
2019-02-18T02:33:16.782Z,49.63
2019-02-18T02:36:21.357Z,51.80
2019-02-18T02:39:25.606Z,50.03
2019-02-18T02:42:29.880Z,52.53
2019-02-18T02:45:34.178Z,49.70
2019-02-18T02:48:38.464Z,50.30
2019-02-18T02:51:42.752Z,53.03
2019-02-18T02:54:47.033Z,53.83
2019-02-18T02:57:51.335Z,50.80
2019-02-18T03:00:55.640Z,52.80
2019-02-18T03:03:59.958Z,52.67
2019-02-18T03:07:04.394Z,52.43
2019-02-18T03:10:10.172Z,50.47
2019-02-18T03:13:14.454Z,50.17
2019-02-18T03:16:19.036Z,49.97
2019-02-18T03:19:23.336Z,49.37
2019-02-18T03:22:27.687Z,52.03
2019-02-18T03:25:31.983Z,47.20
2019-02-18T03:29:17.190Z,51.00
2019-02-18T03:32:21.630Z,47.40
2019-02-18T03:35:25.941Z,49.30
2019-02-18T03:38:31.983Z,49.63
2019-02-18T03:41:36.655Z,46.77
2019-02-18T03:44:40.976Z,47.53
2019-02-18T03:47:45.378Z,50.30
2019-02-18T03:50:49.668Z,48.93
2019-02-18T03:53:53.959Z,47.33
2019-02-18T03:56:58.238Z,46.97
2019-02-18T04:00:02.616Z,51.37
2019-02-18T04:03:06.929Z,47.60
2019-02-18T04:06:11.215Z,48.30
2019-02-18T04:09:15.483Z,46.63
2019-02-18T04:12:19.779Z,49.73
2019-02-18T04:15:24.057Z,50.73
2019-02-18T04:18:28.399Z,47.73
2019-02-18T04:21:32.681Z,50.40
2019-02-18T04:24:36.986Z,46.27
2019-02-18T04:27:41.356Z,49.83
2019-02-18T04:30:45.676Z,49.43
2019-02-18T04:33:50.061Z,49.87
2019-02-18T04:36:54.339Z,48.40
2019-02-18T04:40:00.454Z,46.30
2019-02-18T04:43:04.714Z,52.47
2019-02-18T04:46:09.002Z,46.83
2019-02-18T04:49:13.274Z,50.10
2019-02-18T04:52:17.560Z,48.13
2019-02-18T04:55:21.871Z,47.13
2019-02-18T04:58:26.139Z,48.00
2019-02-18T05:01:30.439Z,43.70
2019-02-18T05:04:34.732Z,44.90
2019-02-18T05:07:39.119Z,49.07
2019-02-18T05:10:43.458Z,47.53
2019-02-18T05:13:47.818Z,49.13
2019-02-18T05:16:52.124Z,49.93
2019-02-18T05:19:58.197Z,45.87
2019-02-18T05:23:03.701Z,46.63
2019-02-18T05:26:07.989Z,51.20
2019-02-18T05:29:12.390Z,45.97
2019-02-18T05:32:16.699Z,48.90
2019-02-18T05:35:21.122Z,45.77
2019-02-18T05:38:25.439Z,49.57
2019-02-18T05:41:31.256Z,44.87
2019-02-18T05:44:35.803Z,53.17
2019-02-18T05:47:40.087Z,47.63
2019-02-18T05:50:44.464Z,48.43
2019-02-18T05:53:48.770Z,45.37
2019-02-18T05:56:53.079Z,48.77
2019-02-18T05:59:57.426Z,48.17
2019-02-18T06:03:01.754Z,50.77
2019-02-18T06:06:06.141Z,48.40
2019-02-18T06:09:10.440Z,50.27
2019-02-18T06:12:14.759Z,55.20
2019-02-18T06:15:19.167Z,48.17
2019-02-18T06:18:23.571Z,46.40
2019-02-18T06:21:27.952Z,49.30
2019-02-18T06:24:32.255Z,46.63
2019-02-18T06:27:37.739Z,45.63
2019-02-18T06:30:42.035Z,52.50
2019-02-18T06:33:46.329Z,50.40
2019-02-18T06:36:50.699Z,54.80
2019-02-18T06:39:54.990Z,52.90
2019-02-18T06:42:59.506Z,49.40
2019-02-18T06:46:10.351Z,45.80
2019-02-18T06:49:19.960Z,46.90
2019-02-18T06:52:27.009Z,56.37
2019-02-18T06:55:31.397Z,49.80
2019-02-18T06:59:07.728Z,54.10
2019-02-18T07:02:19.743Z,54.60
2019-02-18T07:05:49.004Z,52.97
2019-02-18T07:09:12.216Z,54.83
2019-02-18T07:12:31.186Z,49.07
2019-02-18T07:15:38.492Z,51.77
2019-02-18T07:18:42.777Z,53.77
2019-02-18T07:21:48.512Z,49.43
2019-02-18T07:24:52.886Z,52.73
2019-02-18T07:27:57.283Z,56.93
2019-02-18T07:31:04.341Z,56.30
2019-02-18T07:34:08.712Z,48.23
2019-02-18T07:37:13.002Z,52.93
2019-02-18T07:40:17.285Z,54.43
2019-02-18T07:43:23.112Z,52.87
2019-02-18T07:46:27.743Z,50.10
2019-02-18T07:49:32.046Z,46.93
2019-02-18T07:52:38.614Z,52.73
2019-02-18T07:55:43.064Z,50.37
2019-02-18T07:58:47.443Z,47.83
2019-02-18T08:01:51.742Z,53.47
2019-02-18T08:04:56.108Z,45.67
2019-02-18T08:08:00.536Z,48.63
2019-02-18T08:11:05.052Z,51.53
2019-02-18T08:14:09.370Z,50.73
2019-02-18T08:17:15.133Z,50.10
2019-02-18T08:20:19.408Z,48.37
2019-02-18T08:23:23.696Z,51.17
2019-02-18T08:26:29.493Z,48.97
2019-02-18T08:29:33.808Z,48.60
2019-02-18T08:32:39.750Z,47.80
2019-02-18T08:35:47.126Z,48.30
2019-02-18T08:38:51.468Z,51.33
2019-02-18T08:41:55.739Z,47.00
2019-02-18T08:45:03.232Z,48.47
2019-02-18T08:48:07.537Z,47.60
2019-02-18T08:51:14.455Z,44.27
2019-02-18T08:54:18.844Z,43.90
2019-02-18T08:57:23.189Z,46.60
2019-02-18T09:00:31.429Z,46.77
2019-02-18T09:03:37.100Z,46.80
2019-02-18T09:06:43.167Z,45.80
2019-02-18T09:09:47.467Z,46.20
2019-02-18T09:12:53.240Z,41.97
2019-02-18T09:16:00.410Z,43.27
2019-02-18T09:19:03.647Z,44.60
2019-02-18T09:22:26.669Z,43.23
2019-02-18T09:25:44.121Z,42.17
2019-02-18T09:28:48.546Z,45.03
2019-02-18T09:31:53.072Z,49.20
2019-02-18T09:35:02.117Z,50.17
2019-02-18T09:38:03.832Z,42.43
2019-02-18T09:41:10.867Z,38.57
2019-02-18T09:44:20.324Z,41.63
2019-02-18T09:47:24.963Z,41.03
2019-02-18T09:50:29.613Z,43.10
2019-02-18T09:53:34.502Z,41.20
2019-02-18T09:56:39.079Z,40.30
2019-02-18T09:59:46.416Z,46.00
2019-02-18T10:02:51.023Z,37.37
2019-02-18T10:05:55.460Z,40.87
2019-02-18T10:08:59.829Z,43.50
2019-02-18T10:12:04.285Z,44.87
2019-02-18T10:15:09.158Z,41.27
2019-02-18T10:18:13.608Z,39.47
2019-02-18T10:21:19.599Z,47.60
2019-02-18T10:24:25.370Z,40.20
2019-02-18T10:27:29.916Z,43.33
2019-02-18T10:30:34.209Z,43.73
2019-02-18T10:33:38.660Z,39.13
2019-02-18T10:36:44.403Z,43.67
2019-02-18T10:39:48.802Z,42.33
2019-02-18T10:42:53.146Z,39.87
2019-02-18T10:45:57.516Z,38.50
2019-02-18T10:49:02.219Z,36.60
2019-02-18T10:52:06.694Z,40.33
2019-02-18T10:55:11.218Z,38.60
2019-02-18T10:58:15.793Z,35.23
2019-02-18T11:01:20.540Z,38.73
2019-02-18T11:04:24.997Z,35.53
2019-02-18T11:07:29.574Z,38.63
2019-02-18T11:10:34.052Z,40.00
2019-02-18T11:13:38.433Z,41.20
2019-02-18T11:16:42.818Z,37.10
2019-02-18T11:19:47.921Z,31.40
2019-02-18T11:22:52.661Z,39.77
2019-02-18T11:25:57.062Z,38.57
2019-02-18T11:29:01.554Z,32.87
2019-02-18T11:32:06.646Z,34.67
2019-02-18T11:35:11.434Z,36.83
2019-02-18T11:38:16.232Z,33.37
2019-02-18T11:41:27.320Z,36.17
2019-02-18T11:44:27.010Z,32.00
2019-02-18T11:47:31.318Z,27.37
2019-02-18T11:50:35.824Z,30.17
2019-02-18T11:53:40.180Z,29.60
2019-02-18T11:56:44.543Z,30.70
2019-02-18T11:59:49.196Z,34.13
2019-02-18T12:03:02.871Z,31.67
2019-02-18T12:06:03.462Z,31.27
2019-02-18T12:09:09.242Z,29.10
2019-02-18T12:12:13.678Z,28.23
2019-02-18T12:15:18.429Z,27.23
2019-02-18T12:18:22.942Z,32.20
2019-02-18T12:21:27.655Z,28.10
2019-02-18T12:24:32.053Z,25.00
2019-02-18T12:27:38.876Z,26.73
2019-02-18T12:30:43.413Z,25.77
2019-02-18T12:33:48.162Z,30.20
2019-02-18T12:36:52.609Z,28.83
2019-02-18T12:39:56.915Z,28.40
2019-02-18T12:43:01.283Z,25.87
2019-02-18T12:46:15.289Z,25.53
2019-02-18T12:49:12.291Z,27.73
2019-02-18T12:52:17.215Z,23.27
2019-02-18T12:55:24.835Z,24.23
2019-02-18T12:58:29.390Z,25.97
2019-02-18T13:01:33.742Z,25.87
2019-02-18T13:04:38.158Z,21.80
2019-02-18T13:07:42.708Z,28.73
2019-02-18T13:10:47.183Z,25.07
2019-02-18T13:13:51.533Z,25.03
2019-02-18T13:16:55.849Z,56.20
2019-02-18T13:20:00.324Z,25.33
2019-02-18T13:23:04.696Z,24.80
2019-02-18T13:26:10.530Z,25.97
2019-02-18T13:29:14.861Z,24.67
2019-02-18T13:32:19.411Z,21.80
2019-02-18T13:35:25.544Z,21.83
2019-02-18T13:38:29.876Z,24.57
2019-02-18T13:41:34.360Z,24.30
2019-02-18T13:44:38.825Z,27.57
2019-02-18T13:47:43.167Z,27.00
2019-02-18T13:50:47.517Z,23.43
2019-02-18T13:53:52.015Z,27.90
2019-02-18T13:56:56.609Z,21.63
2019-02-18T14:00:01.786Z,27.20
2019-02-18T14:03:06.263Z,23.40
2019-02-18T14:06:13.085Z,20.90
2019-02-18T14:09:20.285Z,27.33
2019-02-18T14:12:24.916Z,27.33
2019-02-18T14:15:29.500Z,30.70
2019-02-18T14:18:35.571Z,20.20
2019-02-18T14:21:39.914Z,24.23
2019-02-18T14:24:44.668Z,25.87
2019-02-18T14:27:48.956Z,23.90
2019-02-18T14:30:53.260Z,20.63
2019-02-18T14:33:57.590Z,22.07
2019-02-18T14:37:01.904Z,20.40
2019-02-18T14:40:06.631Z,19.70
2019-02-18T14:43:10.890Z,26.27
2019-02-18T14:46:15.504Z,20.07
2019-02-18T14:49:19.796Z,19.73
2019-02-18T14:52:24.400Z,24.57
2019-02-18T14:55:28.837Z,25.27
2019-02-18T14:58:34.365Z,23.00
2019-02-18T15:01:38.828Z,22.60
2019-02-18T15:04:43.967Z,23.53
2019-02-18T15:07:54.229Z,23.27
2019-02-18T15:11:07.107Z,24.73
2019-02-18T15:14:13.351Z,19.00
2019-02-18T15:17:17.659Z,24.80
2019-02-18T15:20:22.007Z,21.37
2019-02-18T15:23:26.445Z,25.33
2019-02-18T15:26:31.151Z,20.23
2019-02-18T15:29:35.482Z,18.33
2019-02-18T15:32:39.802Z,20.13
2019-02-18T15:35:44.361Z,20.70
2019-02-18T15:38:48.832Z,21.13
2019-02-18T15:41:54.199Z,19.50
2019-02-18T15:45:00.486Z,23.80
2019-02-18T15:48:05.168Z,19.97
2019-02-18T15:51:09.530Z,18.63
2019-02-18T15:54:14.565Z,18.70
2019-02-18T15:57:18.985Z,27.07
2019-02-18T16:00:24.229Z,22.33
2019-02-18T16:03:28.639Z,26.10
2019-02-18T16:06:32.942Z,23.97
2019-02-18T16:09:37.321Z,26.23
2019-02-18T16:12:50.204Z,25.00
2019-02-18T16:15:47.758Z,24.20
2019-02-18T16:18:52.185Z,24.20
2019-02-18T16:21:56.633Z,24.33
2019-02-18T16:25:00.934Z,27.60
2019-02-18T16:28:05.921Z,23.70
2019-02-18T16:31:12.601Z,26.40
2019-02-18T16:34:16.890Z,25.63
2019-02-18T16:37:21.187Z,27.40
2019-02-18T16:40:27.683Z,25.57
2019-02-18T16:43:32.083Z,25.57
2019-02-18T16:46:36.393Z,26.50
2019-02-18T16:49:41.110Z,28.70
2019-02-18T16:52:47.147Z,29.00
2019-02-18T16:55:51.442Z,28.90
2019-02-18T16:58:55.749Z,25.77
2019-02-18T17:02:00.088Z,25.37
2019-02-18T17:05:04.698Z,33.63
2019-02-18T17:08:12.755Z,25.13
2019-02-18T17:11:18.154Z,29.07
2019-02-18T17:14:22.609Z,36.63
2019-02-18T17:17:30.150Z,31.67
2019-02-18T17:20:35.655Z,37.30
2019-02-18T17:23:42.039Z,32.47
2019-02-18T17:26:47.841Z,31.30
2019-02-18T17:29:52.187Z,35.87
2019-02-18T17:32:59.193Z,30.73
2019-02-18T17:36:03.468Z,37.37
2019-02-18T17:39:08.305Z,31.83
2019-02-18T17:42:12.795Z,30.03
2019-02-18T17:45:17.108Z,37.03
2019-02-18T17:48:21.420Z,32.07
2019-02-18T17:51:25.709Z,32.97
2019-02-18T17:54:30.004Z,33.93
2019-02-18T17:57:34.335Z,34.17
2019-02-18T18:00:40.556Z,40.93
2019-02-18T18:03:44.862Z,38.43
2019-02-18T18:06:54.231Z,38.87
2019-02-18T18:09:58.723Z,36.00
2019-02-18T18:13:03.076Z,42.60
2019-02-18T18:16:09.345Z,38.73
2019-02-18T18:19:13.650Z,36.07
2019-02-18T18:22:18.001Z,36.30
2019-02-18T18:25:22.333Z,33.83
2019-02-18T18:28:26.662Z,37.23
2019-02-18T18:31:30.979Z,35.73
2019-02-18T18:34:35.399Z,35.97
2019-02-18T18:37:41.169Z,37.47
2019-02-18T18:40:45.781Z,36.47
2019-02-18T18:43:50.159Z,42.33
2019-02-18T18:46:54.466Z,36.00
2019-02-18T18:50:01.194Z,35.77
2019-02-18T18:53:05.556Z,38.43
2019-02-18T18:56:10.061Z,36.77
2019-02-18T18:59:14.691Z,38.80
2019-02-18T19:02:19.092Z,38.70
2019-02-18T19:05:23.658Z,35.30
2019-02-18T19:08:28.089Z,34.07
2019-02-18T19:11:32.577Z,36.37
2019-02-18T19:14:36.935Z,37.77
2019-02-18T19:17:42.884Z,43.03
2019-02-18T19:20:47.902Z,49.13
2019-02-18T19:23:52.391Z,37.23
2019-02-18T19:26:56.792Z,41.87
2019-02-18T19:30:01.601Z,38.87
2019-02-18T19:33:08.889Z,40.00
2019-02-18T19:36:13.379Z,36.57
2019-02-18T19:39:18.002Z,38.20
2019-02-18T19:42:24.638Z,49.10
2019-02-18T19:45:32.933Z,45.00
2019-02-18T19:48:37.822Z,44.43
2019-02-18T19:51:45.588Z,49.17
2019-02-18T19:54:50.382Z,37.20
2019-02-18T19:57:55.167Z,41.23
2019-02-18T20:00:59.807Z,42.60
2019-02-18T20:04:07.588Z,43.90
2019-02-18T20:07:12.188Z,45.60
2019-02-18T20:10:17.017Z,46.43
2019-02-18T20:13:22.967Z,37.80
2019-02-18T20:16:27.664Z,37.83
2019-02-18T20:19:32.347Z,40.53
2019-02-18T20:22:37.525Z,37.80
2019-02-18T20:25:42.273Z,36.60
2019-02-18T20:28:46.970Z,37.70
2019-02-18T20:31:51.654Z,35.37
2019-02-18T20:34:56.317Z,36.93
2019-02-18T20:38:01.190Z,38.70
2019-02-18T20:41:06.097Z,39.37
2019-02-18T20:44:10.660Z,33.20
2019-02-18T20:47:15.440Z,30.33
2019-02-18T20:50:19.848Z,34.50
2019-02-18T20:53:24.494Z,31.67
2019-02-18T20:56:31.796Z,28.10
2019-02-18T20:59:38.145Z,32.10
2019-02-18T21:02:43.087Z,34.23
2019-02-18T21:05:47.514Z,31.17
2019-02-18T21:08:54.850Z,33.73
2019-02-18T21:11:59.530Z,36.33
2019-02-18T21:15:06.102Z,33.93
2019-02-18T21:18:10.247Z,32.53
2019-02-18T21:21:14.623Z,33.47
2019-02-18T21:24:19.009Z,37.07
2019-02-18T21:27:26.361Z,30.67
2019-02-18T21:30:30.792Z,31.27
2019-02-18T21:33:35.584Z,34.00
2019-02-18T21:36:39.943Z,36.90
2019-02-18T21:39:44.247Z,31.53
2019-02-18T21:42:48.588Z,37.40
2019-02-18T21:45:52.907Z,33.23
2019-02-18T21:48:57.430Z,36.63
2019-02-18T21:52:04.779Z,34.40
2019-02-18T21:55:09.326Z,34.00
2019-02-18T21:58:14.753Z,43.30
2019-02-18T22:01:19.401Z,40.00
2019-02-18T22:04:25.948Z,43.37
2019-02-18T22:07:30.434Z,39.93
2019-02-18T22:10:34.923Z,37.90
2019-02-18T22:13:39.330Z,38.50
2019-02-18T22:16:43.769Z,47.17
2019-02-18T22:19:48.072Z,40.33
2019-02-18T22:22:54.423Z,40.63
2019-02-18T22:25:58.744Z,42.50
2019-02-18T22:29:05.552Z,47.87
2019-02-18T22:32:09.856Z,39.20
2019-02-18T22:35:14.258Z,40.70
2019-02-18T22:38:18.883Z,38.00
2019-02-18T22:41:23.167Z,38.23
2019-02-18T22:44:30.448Z,35.73
2019-02-18T22:47:36.608Z,40.73
2019-02-18T22:50:41.155Z,35.40
2019-02-18T22:53:45.559Z,41.03
2019-02-18T22:56:49.855Z,40.97
2019-02-18T22:59:57.136Z,46.77
2019-02-18T23:03:01.446Z,43.53
2019-02-18T23:06:06.003Z,46.50
2019-02-18T23:09:12.601Z,45.33
2019-02-18T23:12:16.991Z,50.33
2019-02-18T23:15:21.288Z,44.50
2019-02-18T23:18:27.067Z,45.50
2019-02-18T23:21:31.347Z,50.03
2019-02-18T23:24:35.637Z,48.37
2019-02-18T23:27:40.182Z,49.70
2019-02-18T23:30:44.613Z,53.90
2019-02-18T23:33:49.415Z,46.87
2019-02-18T23:36:53.820Z,51.37
2019-02-18T23:39:59.271Z,51.57
2019-02-18T23:43:03.562Z,54.47
2019-02-18T23:46:07.865Z,52.60
2019-02-18T23:49:12.269Z,49.30
2019-02-18T23:52:16.570Z,56.67
2019-02-18T23:55:20.882Z,54.03
2019-02-18T23:58:27.932Z,57.73
